Time;durP1;ratioP1;P1;durP2;ratioP2;P2;SDS_P1;SDS_P2;PMS_P1;PMS_P2;Temp;Humidity;BMP_temperature;BMP_pressure;BME280_temperature;BME280_humidity;BME280_pressure;Samples;Min_cycle;Max_cycle;Signal;HPM_P1;HPM_P2
2022/07/04 00:00:17;;;;;;;11.35;7.25;;;;;;;21.75;57.29;99632.62;1735127;82;21261;-44
2022/07/04 00:02:45;;;;;;;10.48;7.00;;;;;;;21.71;57.56;99634.69;1735350;82;20935;-44
2022/07/04 00:05:13;;;;;;;8.58;6.55;;;;;;;21.64;57.95;99628.70;1735201;82;20958;-44
2022/07/04 00:07:46;;;;;;;9.48;7.03;;;;;;;21.58;58.27;99636.55;1735058;82;21799;-43
2022/07/04 00:10:16;;;;;;;10.75;7.15;;;;;;;21.51;58.41;99629.80;1735272;82;21061;-43
2022/07/04 00:12:44;;;;;;;8.45;7.03;;;;;;;21.42;58.50;99631.76;1735064;82;21242;-43
2022/07/04 00:15:11;;;;;;;10.63;6.65;;;;;;;21.37;58.84;99635.61;1735418;81;20998;-44
2022/07/04 00:17:40;;;;;;;11.80;6.65;;;;;;;21.36;58.88;99634.05;1749242;82;21061;-43
2022/07/04 00:20:10;;;;;;;10.43;7.30;;;;;;;21.36;59.06;99632.67;1749076;82;21020;-43
2022/07/04 00:22:38;;;;;;;8.95;7.45;;;;;;;21.32;59.21;99644.38;1748852;82;21021;-43
2022/07/04 00:25:07;;;;;;;12.23;8.05;;;;;;;21.26;59.05;99637.20;1749098;82;21247;-44
2022/07/04 00:27:35;;;;;;;15.63;7.78;;;;;;;21.22;59.01;99637.88;1749122;82;21504;-43
2022/07/04 00:30:04;;;;;;;12.35;7.50;;;;;;;21.17;59.10;99640.53;1748772;82;21025;-44
2022/07/04 00:32:31;;;;;;;9.80;7.40;;;;;;;21.11;59.24;99652.43;1749000;82;20941;-43
2022/07/04 00:34:58;;;;;;;10.28;8.08;;;;;;;20.89;59.68;99656.20;1749218;82;21068;-44
2022/07/04 00:37:25;;;;;;;9.98;7.45;;;;;;;20.62;60.32;99652.77;1749297;82;21200;-44
2022/07/04 00:39:52;;;;;;;8.85;7.58;;;;;;;20.46;60.90;99652.04;1749234;82;20953;-44
2022/07/04 00:42:19;;;;;;;13.30;7.85;;;;;;;20.31;61.34;99648.73;1749164;82;20973;-43
2022/07/04 00:44:46;;;;;;;9.23;7.08;;;;;;;20.27;61.53;99648.59;1749106;82;21029;-44
2022/07/04 00:47:13;;;;;;;8.40;7.35;;;;;;;20.24;61.58;99658.44;1749067;82;21005;-44
2022/07/04 00:49:41;;;;;;;9.70;7.22;;;;;;;20.18;61.58;99657.97;1749239;82;22175;-44
2022/07/04 00:52:07;;;;;;;9.40;7.22;;;;;;;20.13;61.82;99660.59;1749188;82;21005;-44
2022/07/04 00:54:35;;;;;;;14.15;7.90;;;;;;;20.14;62.04;99655.88;1749074;82;20925;-44
2022/07/04 00:57:03;;;;;;;9.43;7.67;;;;;;;20.15;62.16;99656.81;1749198;82;20973;-43
2022/07/04 00:59:31;;;;;;;10.00;7.67;;;;;;;20.17;62.03;99660.54;1749289;82;21033;-43
2022/07/04 01:01:58;;;;;;;9.38;7.62;;;;;;;20.17;61.96;99655.81;1749054;82;21236;-44
2022/07/04 01:04:25;;;;;;;9.65;7.65;;;;;;;20.17;62.13;99657.78;1749142;82;20977;-44
2022/07/04 01:06:53;;;;;;;11.00;7.87;;;;;;;20.18;62.06;99656.00;1743672;82;21516;-44
2022/07/04 01:09:20;;;;;;;10.03;7.53;;;;;;;20.15;62.01;99659.56;1749547;82;20965;-44
2022/07/04 01:11:50;;;;;;;12.07;7.50;;;;;;;20.14;61.88;99658.63;1749255;82;21543;-43
2022/07/04 01:14:18;;;;;;;9.85;7.22;;;;;;;20.15;61.91;99656.03;1749217;82;21247;-43
2022/07/04 01:16:44;;;;;;;11.00;7.53;;;;;;;20.16;61.87;99650.13;1749199;81;20982;-44
2022/07/04 01:19:11;;;;;;;8.15;7.08;;;;;;;20.17;61.82;99655.81;1749155;82;20960;-44
2022/07/04 01:21:39;;;;;;;10.25;7.28;;;;;;;20.16;61.83;99650.13;1748383;82;21045;-43
2022/07/04 01:24:06;;;;;;;12.28;7.62;;;;;;;20.13;61.61;99646.84;1749174;82;21033;-44
2022/07/04 01:26:33;;;;;;;10.98;7.33;;;;;;;20.09;61.56;99641.20;1748992;82;21158;-44
2022/07/04 01:29:01;;;;;;;8.88;7.37;;;;;;;20.06;61.72;99641.42;1749035;82;20961;-44
2022/07/04 01:31:28;;;;;;;11.33;7.85;;;;;;;20.02;61.99;99635.20;1749103;82;21654;-44
2022/07/04 01:33:54;;;;;;;11.30;7.08;;;;;;;20.00;62.08;99644.45;1749275;82;20902;-44
2022/07/04 01:36:21;;;;;;;12.05;6.85;;;;;;;19.97;62.12;99635.67;1748996;82;20981;-43
2022/07/04 01:38:49;;;;;;;11.63;7.03;;;;;;;19.96;62.25;99637.64;1749062;82;21103;-43
2022/07/04 01:41:16;;;;;;;11.33;7.47;;;;;;;20.00;62.28;99643.08;1748830;82;21516;-44
2022/07/04 01:43:44;;;;;;;7.78;6.97;;;;;;;20.03;62.14;99645.02;1749093;82;20929;-44
2022/07/04 01:46:11;;;;;;;8.83;7.00;;;;;;;20.02;61.91;99645.42;1749030;82;21639;-44
2022/07/04 01:48:38;;;;;;;8.80;7.30;;;;;;;20.00;61.75;99636.20;1749466;82;20962;-44
2022/07/04 01:51:07;;;;;;;8.20;7.22;;;;;;;19.99;61.78;99649.02;1749410;82;21515;-44
2022/07/04 01:53:37;;;;;;;10.08;7.12;;;;;;;19.94;61.63;99644.77;1749176;82;21013;-43
2022/07/04 01:56:04;;;;;;;9.73;7.72;;;;;;;19.90;61.82;99641.27;1749377;82;21117;-43
2022/07/04 01:58:32;;;;;;;8.93;7.22;;;;;;;19.85;62.04;99634.25;1749346;82;21088;-44
2022/07/04 02:03:45;;;;;;;8.65;7.72;;;;;;;19.78;62.21;99650.09;1749136;82;21143;-44
2022/07/04 02:06:12;;;;;;;9.45;7.17;;;;;;;19.70;62.27;99647.27;1749003;82;21000;-43
2022/07/04 02:11:25;;;;;;;10.10;7.58;;;;;;;19.74;62.27;99644.65;1748929;82;21665;-43
2022/07/04 02:13:52;;;;;;;11.30;6.85;;;;;;;19.78;61.99;99641.84;1749084;82;21024;-43
2022/07/04 02:16:20;;;;;;;10.63;7.35;;;;;;;19.80;61.74;99637.47;1745718;82;21302;-43
2022/07/04 02:18:47;;;;;;;10.43;7.83;;;;;;;19.82;61.77;99637.06;1734910;82;21516;-43
2022/07/04 02:21:14;;;;;;;13.20;7.90;;;;;;;19.83;61.87;99640.78;1734800;82;21074;-43
2022/07/04 02:23:41;;;;;;;11.33;7.62;;;;;;;19.84;61.75;99640.19;1735370;82;21461;-43
2022/07/04 02:26:08;;;;;;;11.57;7.97;;;;;;;19.86;61.76;99640.54;1736424;82;21072;-43
2022/07/04 02:28:36;;;;;;;10.32;7.47;;;;;;;19.87;61.84;99650.36;1743428;81;21134;-43
2022/07/04 02:31:03;;;;;;;9.28;7.33;;;;;;;19.87;62.06;99643.48;1743661;82;21025;-43
2022/07/04 02:33:31;;;;;;;11.25;7.78;;;;;;;19.84;62.06;99644.32;1743579;82;20969;-43
2022/07/04 02:35:59;;;;;;;9.18;7.50;;;;;;;19.87;61.96;99647.61;1743593;81;21489;-43
2022/07/04 02:38:26;;;;;;;10.25;7.40;;;;;;;19.92;61.97;99653.42;1743680;81;21077;-43
2022/07/04 02:40:53;;;;;;;7.53;6.70;;;;;;;20.00;61.94;99651.34;1743752;82;21525;-43
2022/07/04 02:43:20;;;;;;;11.73;7.75;;;;;;;20.05;62.14;99652.25;1743375;81;20993;-43
2022/07/04 02:45:47;;;;;;;10.80;7.28;;;;;;;20.08;62.30;99652.81;1743503;81;20954;-43
2022/07/04 02:48:14;;;;;;;12.73;8.23;;;;;;;20.11;62.26;99650.59;1743496;81;21021;-43
2022/07/04 02:50:41;;;;;;;10.28;6.47;;;;;;;20.15;61.89;99647.77;1743389;81;21040;-43
2022/07/04 02:53:09;;;;;;;12.58;7.67;;;;;;;20.18;61.71;99644.20;1743548;81;21234;-43
2022/07/04 02:55:37;;;;;;;9.50;7.60;;;;;;;20.22;61.74;99636.67;1743515;81;20986;-43
2022/07/04 02:58:04;;;;;;;10.13;7.15;;;;;;;20.25;61.82;99639.36;1743587;81;21560;-43
2022/07/04 03:00:31;;;;;;;7.37;6.53;;;;;;;20.27;62.03;99641.11;1743421;81;21045;-43
2022/07/04 03:02:58;;;;;;;11.70;6.75;;;;;;;20.32;62.06;99644.02;1743589;82;21073;-44
2022/07/04 03:05:25;;;;;;;12.10;7.10;;;;;;;20.37;61.90;99642.94;1743596;82;21501;-44
2022/07/04 03:07:52;;;;;;;9.45;6.50;;;;;;;20.46;62.01;99644.38;1743566;81;20961;-44
2022/07/04 03:10:20;;;;;;;8.48;6.37;;;;;;;20.53;61.92;99642.86;1743338;81;21188;-44
2022/07/04 03:12:47;;;;;;;7.62;6.83;;;;;;;20.60;61.78;99641.38;1743422;82;21005;-44
2022/07/04 03:15:15;;;;;;;9.50;6.90;;;;;;;20.67;61.56;99642.64;1743449;82;21039;-44
2022/07/04 03:17:43;;;;;;;9.23;6.53;;;;;;;20.73;61.38;99647.83;1743557;82;21136;-44
2022/07/04 03:20:11;;;;;;;10.90;6.97;;;;;;;20.79;61.01;99646.15;1743743;81;21004;-43
2022/07/04 03:22:39;;;;;;;9.73;7.05;;;;;;;20.84;60.91;99640.16;1744211;81;21461;-43
2022/07/04 03:25:07;;;;;;;8.98;6.87;;;;;;;20.89;60.96;99650.69;1743682;82;21093;-43
2022/07/04 03:27:34;;;;;;;11.28;6.97;;;;;;;20.90;60.93;99652.25;1743678;82;21527;-43
2022/07/04 03:30:01;;;;;;;11.33;6.97;;;;;;;20.92;60.87;99642.95;1743617;81;22103;-44
2022/07/04 03:32:28;;;;;;;10.23;6.72;;;;;;;20.95;60.92;99649.61;1743474;82;21507;-43
2022/07/04 03:34:55;;;;;;;12.23;5.90;;;;;;;20.98;60.36;99656.42;1743457;82;21078;-44
2022/07/04 03:37:22;;;;;;;7.67;6.15;;;;;;;21.05;60.64;99661.04;1743492;82;21001;-44
2022/07/04 03:39:49;;;;;;;10.78;6.87;;;;;;;21.03;60.92;99655.16;1743443;81;21058;-44
2022/07/04 03:42:16;;;;;;;11.43;6.47;;;;;;;20.95;61.13;99654.52;1743427;82;21199;-44
2022/07/04 03:44:44;;;;;;;13.28;7.50;;;;;;;20.93;61.56;99656.91;1743433;82;21204;-44
2022/07/04 03:47:11;;;;;;;10.75;6.70;;;;;;;20.92;61.70;99656.73;1743514;82;20970;-44
2022/07/04 03:49:38;;;;;;;8.05;6.72;;;;;;;20.88;61.94;99655.23;1743469;81;21563;-44
2022/07/04 03:52:06;;;;;;;9.33;6.40;;;;;;;20.86;62.06;99649.39;1743476;82;21080;-43
2022/07/04 03:54:33;;;;;;;14.13;6.75;;;;;;;20.88;62.16;99643.62;1743720;81;21108;-43
2022/07/04 03:57:01;;;;;;;8.20;6.42;;;;;;;20.94;62.08;99649.42;1743625;82;20985;-44
2022/07/04 03:59:28;;;;;;;8.55;6.33;;;;;;;20.99;61.31;99648.34;1738304;82;21029;-44
2022/07/04 04:01:56;;;;;;;8.70;6.05;;;;;;;21.01;60.85;99643.79;1743761;81;21006;-44
2022/07/04 04:07:08;;;;;;;10.28;6.03;;;;;;;21.00;59.84;99655.41;1743728;82;21247;-43
2022/07/04 04:09:35;;;;;;;10.93;6.95;;;;;;;20.99;59.78;99654.45;1743361;82;20998;-44
2022/07/04 04:12:02;;;;;;;7.05;5.15;;;;;;;20.97;60.33;99653.48;1743477;81;21025;-44
2022/07/04 04:14:29;;;;;;;12.58;5.40;;;;;;;21.02;60.54;99654.97;1743611;82;20926;-44
2022/07/04 04:16:57;;;;;;;8.25;5.28;;;;;;;21.12;60.64;99651.23;1743287;81;21065;-44
2022/07/04 04:19:24;;;;;;;6.45;5.35;;;;;;;21.21;60.89;99650.10;1743477;81;21142;-44
2022/07/04 04:21:52;;;;;;;9.20;5.20;;;;;;;21.28;61.11;99652.73;1743210;82;22044;-44
2022/07/04 04:24:19;;;;;;;7.15;4.40;;;;;;;21.34;60.02;99644.14;1743422;81;20978;-44
2022/07/04 04:26:46;;;;;;;6.42;4.87;;;;;;;21.42;59.40;99649.69;1738994;82;21008;-43
2022/07/04 04:32:06;;;;;;;8.33;5.25;;;;;;;21.57;57.91;99650.95;1773987;79;22275;-43
2022/07/04 04:34:33;;;;;;;6.33;4.97;;;;;;;21.53;57.84;99649.47;1746681;82;21707;-43
2022/07/04 04:37:01;;;;;;;5.12;4.62;;;;;;;21.57;58.08;99644.65;1746415;82;23123;-43
2022/07/04 04:39:29;;;;;;;5.58;4.80;;;;;;;21.65;57.81;99647.42;1746261;82;21582;-43
2022/07/04 04:41:56;;;;;;;7.67;4.47;;;;;;;21.72;57.30;99644.52;1746548;82;21054;-43
2022/07/04 04:44:24;;;;;;;6.17;4.70;;;;;;;21.76;57.09;99646.59;1746505;82;20979;-43
2022/07/04 04:46:51;;;;;;;6.12;4.30;;;;;;;21.80;57.56;99650.05;1746452;82;21070;-43
2022/07/04 04:49:18;;;;;;;9.33;4.20;;;;;;;21.87;57.65;99654.05;1746514;82;21205;-43
2022/07/04 04:51:45;;;;;;;6.50;4.55;;;;;;;21.93;57.28;99645.44;1746451;82;20979;-43
2022/07/04 04:54:12;;;;;;;4.95;4.35;;;;;;;21.99;56.41;99654.77;1746483;82;20967;-43
2022/07/04 04:56:39;;;;;;;5.95;4.70;;;;;;;22.01;56.56;99645.47;1746585;82;21019;-43
2022/07/04 04:59:07;;;;;;;7.03;4.47;;;;;;;22.06;56.31;99649.10;1746379;82;21532;-43
2022/07/04 05:01:34;;;;;;;7.90;5.00;;;;;;;22.10;56.49;99646.25;1746370;82;23136;-43
2022/07/04 05:04:01;;;;;;;5.53;4.72;;;;;;;22.16;56.65;99649.28;1746450;82;21763;-43
2022/07/04 05:06:28;;;;;;;9.00;4.90;;;;;;;22.21;56.61;99646.78;1746502;82;21113;-43
2022/07/04 05:08:57;;;;;;;6.80;4.60;;;;;;;22.28;56.44;99643.06;1740858;82;21006;-43
2022/07/04 05:11:24;;;;;;;5.40;4.67;;;;;;;22.37;56.43;99648.75;1746707;82;21090;-43
2022/07/04 05:13:53;;;;;;;7.50;4.72;;;;;;;22.43;56.21;99644.27;1746544;82;21131;-43
2022/07/04 05:16:20;;;;;;;8.65;5.20;;;;;;;22.46;55.95;99641.41;1746458;82;20963;-43
2022/07/04 05:18:48;;;;;;;7.35;5.22;;;;;;;22.51;56.07;99647.05;1746523;82;20974;-43
2022/07/04 05:21:15;;;;;;;4.95;4.45;;;;;;;22.56;56.08;99641.59;1746538;82;21055;-43
2022/07/04 05:23:42;;;;;;;8.13;4.42;;;;;;;22.63;55.81;99633.89;1746638;82;21042;-43
2022/07/04 05:26:09;;;;;;;8.15;4.60;;;;;;;22.70;55.06;99628.80;1746550;82;21144;-43
2022/07/04 05:28:36;;;;;;;5.67;4.17;;;;;;;22.73;55.56;99632.88;1746308;82;21026;-43
2022/07/04 05:31:05;;;;;;;5.78;4.25;;;;;;;22.80;55.25;99634.05;1749004;81;20983;-43
2022/07/04 05:33:33;;;;;;;5.35;4.10;;;;;;;22.87;54.62;99628.34;1752054;81;20968;-43
2022/07/04 05:36:00;;;;;;;4.03;3.62;;;;;;;22.95;54.63;99633.84;1752254;81;20966;-43
2022/07/04 05:38:27;;;;;;;4.35;3.95;;;;;;;23.05;54.75;99631.22;1752430;81;22034;-43
2022/07/04 05:40:54;;;;;;;5.03;3.90;;;;;;;23.15;54.55;99638.45;1752228;81;21017;-43
2022/07/04 05:43:21;;;;;;;5.05;3.50;;;;;;;23.25;54.33;99640.14;1751869;81;20995;-44
2022/07/04 05:45:48;;;;;;;5.22;3.90;;;;;;;23.35;54.28;99637.69;1751792;82;21481;-43
2022/07/04 05:48:16;;;;;;;5.05;4.35;;;;;;;23.44;53.80;99633.66;1751845;81;21081;-44
2022/07/04 05:50:43;;;;;;;3.83;3.22;;;;;;;23.52;54.25;99634.27;1751661;82;23146;-44
2022/07/04 05:53:10;;;;;;;4.15;2.92;;;;;;;23.60;52.93;99636.38;1751836;81;21027;-44
2022/07/04 05:55:39;;;;;;;4.62;3.15;;;;;;;23.66;52.22;99636.62;1723060;81;20943;-44
2022/07/04 05:58:06;;;;;;;5.62;3.00;;;;;;;23.69;51.32;99634.34;1721708;83;21762;-44
2022/07/04 06:00:32;;;;;;;3.50;2.83;;;;;;;23.73;51.03;99635.78;1721944;83;21600;-43
2022/07/04 06:03:00;;;;;;;4.67;3.00;;;;;;;23.78;50.32;99631.69;1721752;83;21288;-44
2022/07/04 06:05:26;;;;;;;4.33;2.70;;;;;;;23.85;50.15;99632.87;1721605;83;21094;-44
2022/07/04 06:07:53;;;;;;;7.90;3.22;;;;;;;23.93;50.26;99630.64;1721918;83;21494;-43
2022/07/04 06:10:21;;;;;;;3.85;2.75;;;;;;;24.03;49.70;99628.15;1721455;83;21065;-43
2022/07/04 06:12:48;;;;;;;6.50;3.20;;;;;;;24.09;49.13;99630.53;1721696;83;21098;-44
2022/07/04 06:15:15;;;;;;;3.33;2.65;;;;;;;24.18;48.66;99629.28;1721679;83;21247;-44
2022/07/04 06:17:42;;;;;;;3.30;2.85;;;;;;;24.25;48.57;99623.52;1721469;83;21010;-44
2022/07/04 06:20:11;;;;;;;5.50;2.95;;;;;;;24.32;48.87;99619.11;1721668;83;20991;-44
2022/07/04 06:22:47;;;;;;;3.27;2.77;;;;;;;24.43;48.38;99612.61;1722159;83;20982;-44
2022/07/04 06:25:18;;;;;;;3.98;3.17;;;;;;;24.51;47.97;99616.69;1721691;83;21090;-44
2022/07/04 06:27:46;;;;;;;4.95;2.95;;;;;;;24.53;48.34;99608.71;1722004;83;21608;-44
2022/07/04 06:30:14;;;;;;;3.52;3.15;;;;;;;24.67;47.75;99612.37;1721487;83;21072;-44
2022/07/04 06:32:51;;;;;;;3.87;3.15;;;;;;;24.50;47.82;99574.95;1724352;82;21030;-44
2022/07/04 06:38:06;;;;;;;4.70;3.37;;;;;;;24.94;47.04;99613.84;1724556;83;21438;-44
2022/07/04 06:40:34;;;;;;;9.90;3.62;;;;;;;24.99;46.81;99614.05;1724386;83;21198;-44
2022/07/04 06:43:01;;;;;;;4.85;3.35;;;;;;;25.06;46.78;99613.03;1724752;83;20951;-44
2022/07/04 06:45:28;;;;;;;4.65;3.50;;;;;;;25.12;46.22;99609.84;1724455;83;21038;-43
2022/07/04 06:47:55;;;;;;;4.12;3.33;;;;;;;25.15;46.94;99610.92;1724473;83;20979;-44
2022/07/04 06:50:22;;;;;;;4.00;3.40;;;;;;;25.18;47.02;99603.84;1724379;83;21055;-44
2022/07/04 06:52:49;;;;;;;3.47;3.17;;;;;;;25.24;47.39;99609.59;1724636;83;21240;-44
2022/07/04 06:55:35;;;;;;;5.00;3.67;;;;;;;25.31;47.54;99608.73;1736569;82;21037;-44
2022/07/04 06:58:03;;;;;;;5.45;3.12;;;;;;;25.43;47.33;99606.48;1751959;82;20941;-44
2022/07/04 07:00:30;;;;;;;4.00;3.60;;;;;;;25.58;47.26;99605.96;1751862;82;21533;-43
2022/07/04 07:03:00;;;;;;;3.50;3.20;;;;;;;25.66;46.95;99607.26;1751960;82;21020;-43
2022/07/04 07:05:28;;;;;;;5.08;3.25;;;;;;;25.70;46.72;99608.66;1751626;82;21203;-44
2022/07/04 07:07:56;;;;;;;4.95;3.42;;;;;;;25.76;46.63;99605.42;1751604;82;21012;-44
2022/07/04 07:10:22;;;;;;;5.33;3.65;;;;;;;25.85;45.91;99606.11;1751648;82;20984;-43
2022/07/04 07:12:50;;;;;;;4.00;3.20;;;;;;;25.92;45.64;99611.36;1751527;82;21358;-43
2022/07/04 07:15:18;;;;;;;4.03;2.87;;;;;;;25.97;45.83;99602.42;1751664;82;21048;-44
2022/07/04 07:17:45;;;;;;;4.40;3.58;;;;;;;26.06;45.93;99596.13;1751733;82;21171;-44
2022/07/04 07:20:13;;;;;;;5.72;3.25;;;;;;;26.19;45.42;99596.80;1751571;82;20998;-44
2022/07/04 07:22:42;;;;;;;4.83;3.27;;;;;;;26.29;45.55;99596.36;1751716;82;20984;-43
2022/07/04 07:25:12;;;;;;;6.65;3.60;;;;;;;26.38;44.85;99594.98;1751510;82;21105;-43
2022/07/04 07:27:40;;;;;;;4.22;3.20;;;;;;;26.46;44.90;99595.47;1751850;82;21084;-44
2022/07/04 07:30:09;;;;;;;4.53;3.40;;;;;;;26.55;43.88;99594.70;1751825;82;21189;-44
2022/07/04 07:32:36;;;;;;;6.17;2.90;;;;;;;26.64;43.63;99595.48;1744834;81;20923;-44
2022/07/04 07:35:05;;;;;;;4.55;3.02;;;;;;;26.79;43.23;99591.47;1743402;82;21014;-44
2022/07/04 07:37:31;;;;;;;3.50;3.20;;;;;;;26.97;43.41;99589.31;1728720;82;21708;-44
2022/07/04 07:39:59;;;;;;;3.92;3.27;;;;;;;27.14;42.73;99598.27;1707759;84;21077;-44
2022/07/04 07:42:27;;;;;;;4.25;3.00;;;;;;;27.30;41.18;99590.83;1707517;84;21157;-44
2022/07/04 07:44:56;;;;;;;3.17;2.87;;;;;;;27.43;41.01;99592.18;1707908;84;21540;-44
2022/07/04 07:47:23;;;;;;;7.92;3.20;;;;;;;27.60;40.55;99592.60;1707636;84;20958;-44
2022/07/04 07:49:50;;;;;;;4.00;2.92;;;;;;;27.75;40.48;99586.52;1707733;84;21013;-44
2022/07/04 07:52:17;;;;;;;4.83;3.25;;;;;;;27.93;40.09;99594.04;1707886;84;21492;-44
2022/07/04 07:54:44;;;;;;;4.42;3.12;;;;;;;28.08;39.89;99588.67;1707769;84;21140;-44
2022/07/04 07:57:11;;;;;;;5.95;2.95;;;;;;;28.23;39.18;99590.16;1707814;84;21029;-44
2022/07/04 07:59:39;;;;;;;3.95;3.10;;;;;;;28.38;38.58;99585.42;1707848;84;20965;-44
2022/07/04 08:02:07;;;;;;;3.58;2.90;;;;;;;28.48;38.13;99588.30;1707726;84;21341;-44
2022/07/04 08:04:37;;;;;;;4.22;3.08;;;;;;;28.56;38.23;99583.77;1708036;84;21033;-44
2022/07/04 08:07:05;;;;;;;3.52;3.22;;;;;;;28.61;37.52;99586.64;1707840;84;21916;-44
2022/07/04 08:09:33;;;;;;;4.37;2.83;;;;;;;28.57;37.37;99584.66;1708018;84;20930;-44
2022/07/04 08:12:00;;;;;;;3.62;3.02;;;;;;;28.52;36.87;99576.33;1707815;84;21002;-44
2022/07/04 08:14:28;;;;;;;3.30;3.00;;;;;;;28.51;37.13;99569.84;1707770;84;21085;-43
2022/07/04 08:16:57;;;;;;;4.22;3.05;;;;;;;28.54;37.08;99575.86;1707989;84;21566;-44
2022/07/04 08:19:25;;;;;;;3.15;2.85;;;;;;;28.55;37.16;99569.66;1707650;84;21509;-44
2022/07/04 08:21:53;;;;;;;4.12;2.72;;;;;;;28.57;37.48;99569.31;1707880;84;20993;-44
2022/07/04 08:24:20;;;;;;;3.37;2.60;;;;;;;28.68;37.57;99565.98;1722767;82;20981;-43
2022/07/04 08:26:47;;;;;;;4.70;2.65;;;;;;;28.81;37.42;99564.48;1743422;82;21012;-44
2022/07/04 08:29:18;;;;;;;3.58;2.83;;;;;;;28.95;35.70;99564.36;1743305;82;21000;-44
2022/07/04 08:31:45;;;;;;;4.55;3.10;;;;;;;29.05;35.39;99566.47;1745971;82;21147;-44
2022/07/04 08:34:12;;;;;;;3.12;2.83;;;;;;;29.22;36.41;99568.91;1751286;82;21048;-43
2022/07/04 08:36:39;;;;;;;3.45;3.15;;;;;;;29.35;35.65;99565.99;1751422;82;21025;-44
2022/07/04 08:39:06;;;;;;;4.05;3.02;;;;;;;29.48;36.24;99555.16;1751518;82;21601;-44
2022/07/04 08:41:37;;;;;;;4.80;3.08;;;;;;;29.60;35.61;99556.86;1751372;82;21044;-44
2022/07/04 08:44:11;;;;;;;4.67;2.83;;;;;;;29.71;35.71;99559.83;1751532;82;21796;-44
2022/07/04 08:46:40;;;;;;;3.95;3.33;;;;;;;29.88;35.22;99554.48;1751323;82;21036;-44
2022/07/04 08:49:22;;;;;;;6.55;3.15;;;;;;;30.07;34.11;99554.39;1751978;82;20977;-44
2022/07/04 08:52:03;;;;;;;5.12;3.25;;;;;;;30.10;33.25;99552.80;1751322;82;21040;-44
2022/07/04 09:00:06;;;;;;;4.78;2.50;;;;;;;29.84;33.23;99556.09;1751191;82;21614;-45
2022/07/04 09:02:34;;;;;;;5.60;3.10;;;;;;;29.91;34.04;99553.55;1751502;82;21076;-44
2022/07/04 09:05:01;;;;;;;3.90;2.77;;;;;;;30.05;34.14;99556.92;1751524;82;20942;-45
2022/07/04 09:07:31;;;;;;;2.60;2.22;;;;;;;30.24;34.10;99555.39;1751345;82;21040;-44
2022/07/04 09:10:00;;;;;;;3.35;2.50;;;;;;;30.38;31.25;99548.96;1751332;82;21134;-44
2022/07/04 09:12:26;;;;;;;3.42;2.20;;;;;;;30.35;29.70;99563.94;1746393;82;21082;-44
2022/07/04 09:14:54;;;;;;;2.42;2.22;;;;;;;30.31;30.28;99547.97;1751359;82;21008;-44
2022/07/04 09:17:22;;;;;;;2.95;2.50;;;;;;;30.34;30.83;99547.63;1751403;82;21008;-44
2022/07/04 09:20:20;;;;;;;3.00;2.47;;;;;;;30.42;29.70;99542.52;1751385;82;21028;-45
2022/07/04 09:22:48;;;;;;;2.50;2.30;;;;;;;30.47;30.34;99551.64;1751198;82;21236;-44
2022/07/04 09:25:15;;;;;;;2.55;2.35;;;;;;;30.58;29.87;99551.77;1751576;82;21329;-45
2022/07/04 09:27:47;;;;;;;2.47;2.20;;;;;;;30.63;29.47;99549.67;1751683;82;21479;-45
2022/07/04 09:30:17;;;;;;;2.98;2.17;;;;;;;30.69;29.04;99546.17;1751576;82;20953;-45
2022/07/04 09:32:54;;;;;;;3.17;2.50;;;;;;;30.69;29.75;99540.57;1746756;82;21045;-44
2022/07/04 09:35:23;;;;;;;2.70;2.50;;;;;;;30.71;28.31;99543.63;1743526;82;21298;-44
2022/07/04 09:37:55;;;;;;;4.17;2.40;;;;;;;30.64;29.73;99544.84;1743562;82;20921;-45
2022/07/04 09:43:22;;;;;;;4.08;2.58;;;;;;;30.73;29.24;99539.72;1743342;82;21578;-44
2022/07/04 09:45:59;;;;;;;3.35;2.20;;;;;;;30.68;29.51;99534.83;1743549;82;21029;-44
2022/07/04 09:48:26;;;;;;;2.47;2.22;;;;;;;30.70;28.55;99532.28;1743381;82;21987;-44
2022/07/04 09:50:54;;;;;;;2.75;2.33;;;;;;;30.70;26.98;99533.69;1743639;82;20957;-45
2022/07/04 09:53:28;;;;;;;2.55;2.35;;;;;;;30.64;28.71;99539.25;1743481;82;21538;-45
2022/07/04 09:55:54;;;;;;;2.60;2.40;;;;;;;30.65;29.20;99531.74;1743749;82;21507;-45
2022/07/04 09:58:21;;;;;;;2.52;2.33;;;;;;;30.72;29.37;99531.95;1743725;82;21016;-44
2022/07/04 10:00:49;;;;;;;3.42;2.70;;;;;;;30.77;29.00;99534.66;1743670;82;21146;-44
2022/07/04 10:03:25;;;;;;;3.50;2.30;;;;;;;30.75;28.96;99528.78;1743586;82;20965;-44
2022/07/04 10:06:10;;;;;;;2.55;2.10;;;;;;;30.77;30.14;99529.07;1743745;82;20953;-44
2022/07/04 10:08:41;;;;;;;3.02;2.58;;;;;;;30.77;30.38;99522.84;1743717;82;21041;-44
2022/07/04 10:11:08;;;;;;;2.62;2.37;;;;;;;30.87;30.05;99519.25;1743680;82;21040;-44
2022/07/04 10:13:37;;;;;;;2.85;2.40;;;;;;;30.97;29.72;99522.79;1743739;82;20988;-44
2022/07/04 10:16:06;;;;;;;2.98;2.50;;;;;;;31.11;29.08;99523.95;1744021;82;21005;-44
2022/07/04 10:18:34;;;;;;;2.40;2.20;;;;;;;31.21;29.26;99524.55;1743635;82;20972;-44
2022/07/04 10:21:02;;;;;;;3.72;2.45;;;;;;;31.29;29.80;99519.39;1743746;82;20969;-44
2022/07/04 10:23:33;;;;;;;3.17;2.60;;;;;;;31.40;29.95;99520.88;1743435;82;21057;-44
2022/07/04 10:26:02;;;;;;;2.90;2.33;;;;;;;31.56;29.68;99521.50;1743706;82;21083;-44
2022/07/04 10:28:29;;;;;;;2.58;2.37;;;;;;;31.67;28.70;99518.16;1743778;82;21008;-44
2022/07/04 10:30:57;;;;;;;3.17;2.58;;;;;;;31.72;28.34;99509.64;1743931;82;20961;-44
2022/07/04 10:33:26;;;;;;;4.35;2.60;;;;;;;31.82;28.49;99509.58;1743661;82;20949;-44
2022/07/04 10:36:03;;;;;;;3.90;3.02;;;;;;;31.83;28.19;99499.27;1743915;82;21036;-44
2022/07/04 10:38:37;;;;;;;2.87;2.52;;;;;;;31.84;28.07;99498.02;1743395;82;21895;-44
2022/07/04 10:41:06;;;;;;;2.62;2.42;;;;;;;31.98;28.53;99495.52;1741935;82;21471;-44
2022/07/04 10:43:37;;;;;;;3.27;2.70;;;;;;;32.09;28.50;99486.53;1743506;82;20946;-44
2022/07/04 10:46:25;;;;;;;4.60;2.45;;;;;;;32.27;27.71;99490.32;1743472;82;21063;-44
2022/07/04 10:49:04;;;;;;;2.95;2.40;;;;;;;32.42;27.46;99492.15;1743618;82;21002;-44
2022/07/04 10:51:48;;;;;;;2.60;2.40;;;;;;;32.56;27.78;99488.36;1743287;82;22137;-44
2022/07/04 10:54:19;;;;;;;4.40;2.62;;;;;;;32.63;28.14;99480.22;1743445;82;21016;-44
2022/07/04 10:57:07;;;;;;;3.27;2.72;;;;;;;32.81;26.99;99486.01;1743649;82;21487;-44
2022/07/04 10:59:35;;;;;;;3.15;2.42;;;;;;;32.84;27.52;99493.41;1743530;82;25502;-44
2022/07/04 11:02:13;;;;;;;5.08;2.70;;;;;;;32.80;26.61;99486.51;1738740;82;21087;-44
2022/07/04 11:04:56;;;;;;;;;;;;;;;32.78;26.61;99485.61;1746223;82;21098;-44
2022/07/04 11:07:41;;;;;;;3.75;2.90;;;;;;;32.91;27.61;99480.91;1743354;82;20134;-44
2022/07/04 11:13:00;;;;;;;2.83;2.52;;;;;;;33.48;26.46;99481.80;1743417;82;21492;-44
2022/07/04 11:15:35;;;;;;;2.87;2.25;;;;;;;33.79;26.34;99489.18;1743626;82;21542;-44
2022/07/04 11:18:10;;;;;;;4.15;2.87;;;;;;;34.05;26.39;99486.13;1743537;82;20942;-44
2022/07/04 11:20:39;;;;;;;3.42;2.47;;;;;;;34.38;25.81;99476.02;1743413;82;20996;-44
2022/07/04 11:23:09;;;;;;;3.22;2.50;;;;;;;34.71;25.39;99473.02;1743604;82;21005;-44
2022/07/04 11:25:37;;;;;;;2.55;2.35;;;;;;;35.00;25.38;99461.69;1743458;82;21025;-44
2022/07/04 11:28:34;;;;;;;2.52;2.27;;;;;;;35.27;24.81;99462.74;1743739;82;20984;-44
2022/07/04 11:30:58;;;;;;;3.35;2.25;;;;;;;35.55;25.02;99463.22;1742474;82;21158;-44
2022/07/04 11:33:29;;;;;;;3.35;2.33;;;;;;;35.83;23.65;99462.92;1748297;82;21040;-45
2022/07/04 11:36:10;;;;;;;2.70;2.35;;;;;;;36.06;24.38;99464.20;1751539;82;20952;-44
2022/07/04 11:38:54;;;;;;;3.27;2.10;;;;;;;36.47;23.83;99460.32;1751471;82;21009;-45
2022/07/04 11:47:19;;;;;;;6.25;2.40;;;;;;;37.69;22.56;99447.00;1687005;85;21577;-44
2022/07/04 11:49:58;;;;;;;2.85;2.30;;;;;;;37.92;21.58;99420.41;1721343;82;21013;-45
2022/07/04 11:52:44;;;;;;;4.45;2.22;;;;;;;37.99;21.24;99442.44;1751673;82;21036;-45
2022/07/04 11:55:14;;;;;;;5.25;2.40;;;;;;;37.73;21.61;99438.17;1751766;82;21040;-45
2022/07/04 11:57:44;;;;;;;4.42;2.35;;;;;;;37.54;21.98;99435.47;1751364;82;21275;-45
2022/07/04 12:00:17;;;;;;;4.03;2.70;;;;;;;37.32;22.50;99438.05;1751288;82;21036;-45
2022/07/04 12:02:48;;;;;;;3.40;2.27;;;;;;;37.31;23.06;99430.86;1751553;82;21017;-45
2022/07/04 12:05:16;;;;;;;3.40;2.17;;;;;;;37.45;22.79;99428.80;1751594;82;21004;-45
2022/07/04 12:07:48;;;;;;;3.05;2.35;;;;;;;37.70;22.55;99435.03;1751522;82;21878;-45
2022/07/04 12:10:18;;;;;;;2.83;2.37;;;;;;;38.02;21.92;99420.09;1751680;82;21090;-45